Time;durP1;ratioP1;P1;durP2;ratioP2;P2;SDS_P1;SDS_P2;PMS_P1;PMS_P2;Temp;Humidity;BMP_temperature;BMP_pressure;BME280_temperature;BME280_humidity;BME280_pressure;Samples;Min_cycle;Max_cycle;Signal;HPM_P1;HPM_P2
2021/09/26 00:00:14;;;;;;;4.63;2.73;;;;;;;15.63;100.00;97076.84;5073394;28;20199;-76
2021/09/26 00:02:42;;;;;;;3.83;3.33;;;;;;;15.42;100.00;97062.31;5073122;28;20220;-76
2021/09/26 00:05:11;;;;;;;3.60;3.30;;;;;;;15.49;100.00;97056.34;5073694;28;20207;-76
2021/09/26 00:07:39;;;;;;;4.63;3.07;;;;;;;15.37;100.00;97063.81;5073027;28;20195;-77
2021/09/26 00:10:10;;;;;;;3.80;3.07;;;;;;;15.48;100.00;97058.16;5074090;28;20316;-75
2021/09/26 00:12:38;;;;;;;3.90;3.60;;;;;;;15.39;100.00;97052.06;5088812;28;20209;-76
2021/09/26 00:15:08;;;;;;;3.50;3.20;;;;;;;15.41;100.00;97055.38;5083592;28;20243;-76
2021/09/26 00:17:35;;;;;;;3.67;3.33;;;;;;;15.42;100.00;97050.91;5073375;28;20203;-76
2021/09/26 00:20:03;;;;;;;4.60;3.67;;;;;;;15.33;100.00;97044.78;5073261;28;20202;-76
2021/09/26 00:22:30;;;;;;;3.87;3.57;;;;;;;15.41;100.00;97051.88;5073689;28;20230;-76
2021/09/26 00:24:57;;;;;;;4.57;4.13;;;;;;;15.40;100.00;97047.59;5093637;28;20611;-76
2021/09/26 00:27:26;;;;;;;4.20;3.80;;;;;;;15.36;100.00;97044.44;5093158;28;20648;-76
2021/09/26 00:29:53;;;;;;;4.43;4.00;;;;;;;15.24;100.00;97045.81;5093456;28;20192;-76
2021/09/26 00:32:20;;;;;;;6.70;3.90;;;;;;;15.20;100.00;97041.81;5093359;28;20202;-76
2021/09/26 00:34:48;;;;;;;3.40;3.10;;;;;;;15.42;100.00;97038.47;5087934;28;20205;-76
2021/09/26 00:37:15;;;;;;;4.90;3.40;;;;;;;15.48;100.00;97034.31;5073112;28;20212;-76
2021/09/26 00:39:43;;;;;;;7.43;4.40;;;;;;;15.20;100.00;97031.22;5072702;28;20581;-76
2021/09/26 00:42:10;;;;;;;3.80;3.50;;;;;;;15.38;100.00;97023.94;5072678;28;20197;-76
2021/09/26 00:44:39;;;;;;;4.10;3.30;;;;;;;15.42;100.00;97030.53;5072638;28;20229;-76
2021/09/26 00:47:06;;;;;;;4.40;3.83;;;;;;;15.30;100.00;97034.53;5073020;28;20229;-76
2021/09/26 00:49:33;;;;;;;4.37;4.00;;;;;;;15.43;100.00;97036.66;5072401;28;20207;-76
2021/09/26 00:52:01;;;;;;;6.40;3.63;;;;;;;15.37;100.00;97032.03;5072553;28;20200;-76
2021/09/26 00:54:28;;;;;;;3.30;3.07;;;;;;;15.42;100.00;97022.59;5072633;28;20602;-76
2021/09/26 00:56:57;;;;;;;3.60;3.30;;;;;;;15.17;100.00;97023.63;5072099;28;20238;-76
2021/09/26 00:59:24;;;;;;;3.60;3.30;;;;;;;15.29;100.00;97022.28;5072272;28;20193;-76
2021/09/26 01:01:53;;;;;;;5.40;3.67;;;;;;;15.12;100.00;97018.03;5072349;28;20205;-76
2021/09/26 01:04:21;;;;;;;3.87;3.57;;;;;;;15.19;100.00;97024.28;5072622;28;20253;-76
2021/09/26 01:06:59;;;;;;;4.87;3.50;;;;;;;14.96;100.00;97026.81;5072199;28;20252;-76
2021/09/26 01:09:35;;;;;;;3.70;3.33;;;;;;;14.76;100.00;97020.22;5072714;28;20600;-76
2021/09/26 01:12:13;;;;;;;6.13;3.97;;;;;;;14.76;100.00;97015.75;5071857;28;20189;-76
2021/09/26 01:14:47;;;;;;;5.27;3.70;;;;;;;14.95;100.00;97023.34;5072442;28;20198;-76
2021/09/26 01:17:28;;;;;;;7.50;4.27;;;;;;;14.89;100.00;97020.53;5072475;28;20190;-76
2021/09/26 01:20:27;;;;;;;3.63;3.33;;;;;;;14.79;100.00;97019.88;5085367;28;20202;-76
2021/09/26 01:23:12;;;;;;;3.70;3.40;;;;;;;14.78;100.00;97027.00;5092420;28;20306;-76
2021/09/26 01:25:57;;;;;;;4.03;3.57;;;;;;;14.62;100.00;97014.59;5092235;28;20185;-76
2021/09/26 01:28:40;;;;;;;3.97;3.57;;;;;;;14.54;100.00;97019.06;5081257;28;20251;-76
2021/09/26 01:31:12;;;;;;;3.87;3.57;;;;;;;14.62;100.00;97016.44;5072004;28;20190;-76
2021/09/26 01:33:43;;;;;;;7.13;3.33;;;;;;;14.68;100.00;97013.09;5071895;28;20178;-76
2021/09/26 01:36:22;;;;;;;3.60;3.03;;;;;;;14.73;100.00;97008.97;5071753;28;20202;-76
2021/09/26 01:38:59;;;;;;;4.20;3.80;;;;;;;14.67;100.00;97011.47;5072217;28;20184;-76
2021/09/26 01:41:33;;;;;;;3.77;3.47;;;;;;;14.67;100.00;97014.09;5071899;28;20200;-76
2021/09/26 01:44:02;;;;;;;4.87;3.30;;;;;;;14.60;100.00;97016.59;5074779;28;20205;-76
2021/09/26 01:46:35;;;;;;;4.17;3.83;;;;;;;14.54;100.00;97004.00;5089645;28;20563;-76
2021/09/26 01:49:08;;;;;;;8.60;4.77;;;;;;;14.58;100.00;97009.78;5091993;28;20185;-76
2021/09/26 01:51:37;;;;;;;4.10;3.77;;;;;;;14.63;100.00;97005.66;5092344;28;20602;-76
2021/09/26 01:54:08;;;;;;;3.80;3.33;;;;;;;14.48;100.00;97007.31;5092059;28;20198;-76
2021/09/26 01:56:36;;;;;;;7.87;3.70;;;;;;;14.31;100.00;97003.00;5072148;28;20721;-76
2021/09/26 01:59:04;;;;;;;10.53;4.10;;;;;;;14.12;100.00;97002.28;5071307;28;20283;-76
2021/09/26 02:01:34;;;;;;;3.80;3.50;;;;;;;14.14;100.00;96995.03;5071624;28;20200;-76
2021/09/26 02:04:02;;;;;;;3.70;3.40;;;;;;;14.34;100.00;96992.91;5071405;28;20227;-76
2021/09/26 02:06:30;;;;;;;4.70;3.97;;;;;;;14.32;100.00;96988.78;5071853;28;20193;-76
2021/09/26 02:08:58;;;;;;;4.90;3.83;;;;;;;14.40;100.00;96992.22;5071210;28;20228;-76
2021/09/26 02:11:26;;;;;;;3.77;3.47;;;;;;;14.38;100.00;96994.22;5071504;28;20194;-76
2021/09/26 02:13:55;;;;;;;3.60;2.87;;;;;;;14.13;100.00;96993.38;5071552;28;20212;-76
2021/09/26 02:16:23;;;;;;;4.30;3.90;;;;;;;14.09;100.00;96992.03;5071437;28;20687;-76
2021/09/26 02:18:54;;;;;;;4.30;3.90;;;;;;;14.10;100.00;96985.78;5071690;28;20288;-76
2021/09/26 02:21:23;;;;;;;4.57;3.30;;;;;;;14.11;100.00;96978.69;5071469;28;20188;-75
2021/09/26 02:23:51;;;;;;;3.93;3.63;;;;;;;14.17;100.00;96973.56;5072216;28;20284;-76
2021/09/26 02:26:19;;;;;;;3.83;3.53;;;;;;;14.28;100.00;96978.53;5075375;28;20205;-75
2021/09/26 02:28:46;;;;;;;4.57;4.17;;;;;;;13.96;100.00;96976.66;5075150;28;20666;-75
2021/09/26 02:31:14;;;;;;;3.40;3.17;;;;;;;14.31;100.00;96964.16;5075368;28;20197;-76
2021/09/26 02:33:44;;;;;;;3.83;3.50;;;;;;;14.38;100.00;96978.38;5075085;28;20195;-76
2021/09/26 02:36:14;;;;;;;4.37;3.97;;;;;;;14.33;100.00;96975.38;5075038;28;20182;-75
2021/09/26 02:38:42;;;;;;;5.80;4.20;;;;;;;14.18;100.00;96969.09;5074945;28;20186;-75
2021/09/26 02:41:20;;;;;;;3.57;3.10;;;;;;;14.26;100.00;96964.63;5075158;28;20204;-75
2021/09/26 02:43:56;;;;;;;4.17;3.87;;;;;;;14.08;100.00;96963.13;5075051;28;20205;-76
2021/09/26 02:46:27;;;;;;;3.80;3.50;;;;;;;14.12;100.00;96973.22;5074985;28;20184;-75
2021/09/26 02:48:55;;;;;;;4.07;3.57;;;;;;;14.18;100.00;96966.44;5075175;28;20186;-75
2021/09/26 02:51:24;;;;;;;5.83;4.07;;;;;;;14.07;100.00;96974.72;5078112;28;20219;-75
2021/09/26 02:53:53;;;;;;;4.10;3.80;;;;;;;13.99;100.00;96970.22;5075039;28;20225;-75
2021/09/26 02:56:21;;;;;;;4.23;3.37;;;;;;;14.10;100.00;96971.72;5076836;28;20247;-75
2021/09/26 02:58:49;;;;;;;3.93;3.50;;;;;;;13.97;100.00;96978.31;5074310;28;20201;-75
2021/09/26 03:01:16;;;;;;;4.47;3.97;;;;;;;13.90;100.00;96964.09;5075057;28;20196;-76
2021/09/26 03:03:44;;;;;;;4.67;4.27;;;;;;;14.12;100.00;96959.16;5078160;28;20315;-75
2021/09/26 03:06:11;;;;;;;3.80;3.37;;;;;;;13.98;100.00;96965.94;5095348;28;20197;-75
2021/09/26 03:08:40;;;;;;;4.60;4.20;;;;;;;13.74;100.00;96961.41;5094924;28;20196;-76
2021/09/26 03:11:07;;;;;;;4.07;3.67;;;;;;;13.96;100.00;96957.34;5095226;28;20278;-76
2021/09/26 03:13:34;;;;;;;4.90;3.90;;;;;;;13.97;100.00;96966.94;5094832;28;20275;-75
2021/09/26 03:16:01;;;;;;;4.33;3.93;;;;;;;14.13;100.00;96963.47;5094736;28;20200;-76
2021/09/26 03:18:29;;;;;;;3.73;3.30;;;;;;;14.03;100.00;96964.47;5080971;28;20240;-75
2021/09/26 03:20:56;;;;;;;4.37;3.97;;;;;;;13.80;100.00;96964.25;5074415;28;20197;-76
2021/09/26 03:23:23;;;;;;;4.67;4.27;;;;;;;13.63;100.00;96959.91;5073872;28;20237;-75
2021/09/26 03:25:52;;;;;;;5.20;4.27;;;;;;;13.76;100.00;96962.91;5074641;28;20231;-75
2021/09/26 03:28:19;;;;;;;4.17;3.77;;;;;;;13.78;100.00;96966.19;5074281;28;20209;-75
2021/09/26 03:30:47;;;;;;;4.53;3.73;;;;;;;13.86;100.00;96973.34;5074551;28;20193;-75
2021/09/26 03:33:14;;;;;;;7.13;4.40;;;;;;;13.93;100.00;96977.00;5073739;28;20661;-75
2021/09/26 03:35:41;;;;;;;4.70;4.30;;;;;;;13.69;100.00;96967.19;5073101;28;20271;-75
2021/09/26 03:38:08;;;;;;;6.67;4.10;;;;;;;13.82;100.00;96966.75;5073873;28;20749;-75
2021/09/26 03:40:35;;;;;;;6.17;4.20;;;;;;;13.74;100.00;96970.16;5074068;28;20215;-75
2021/09/26 03:43:04;;;;;;;5.60;5.10;;;;;;;13.76;100.00;96970.00;5073690;28;20196;-75
2021/09/26 03:45:31;;;;;;;8.50;5.63;;;;;;;13.51;100.00;96980.50;5073946;28;20200;-75
2021/09/26 03:47:59;;;;;;;5.10;4.60;;;;;;;13.64;100.00;96976.56;5086691;28;20215;-75
2021/09/26 03:50:26;;;;;;;4.57;4.17;;;;;;;13.65;100.00;96975.59;5093885;28;20203;-76
2021/09/26 03:52:53;;;;;;;6.37;4.93;;;;;;;13.78;100.00;96968.03;5093730;28;20592;-75
2021/09/26 03:55:21;;;;;;;5.17;4.73;;;;;;;13.52;100.00;96971.59;5093831;28;20686;-75
2021/09/26 03:57:49;;;;;;;5.60;4.43;;;;;;;13.58;100.00;96975.41;5093777;28;20200;-75
2021/09/26 04:00:22;;;;;;;4.50;4.10;;;;;;;13.66;100.00;96964.03;5093814;28;20196;-75
2021/09/26 04:02:49;;;;;;;4.37;3.97;;;;;;;13.63;100.00;96959.06;5093641;28;20196;-75
2021/09/26 04:05:16;;;;;;;4.23;3.70;;;;;;;13.56;100.00;96962.34;5093731;28;20230;-75
2021/09/26 04:07:44;;;;;;;3.87;3.57;;;;;;;13.78;100.00;96971.50;5093815;28;20201;-75
2021/09/26 04:10:12;;;;;;;6.37;4.10;;;;;;;13.82;100.00;96969.38;5086949;28;20200;-75
2021/09/26 04:12:40;;;;;;;4.20;3.80;;;;;;;13.59;100.00;96971.78;5079077;28;20278;-75
2021/09/26 04:15:09;;;;;;;4.20;3.80;;;;;;;13.31;100.00;96968.53;5073247;28;20201;-75
2021/09/26 04:17:37;;;;;;;4.53;4.03;;;;;;;13.58;100.00;96964.84;5081669;28;20204;-76
2021/09/26 04:20:06;;;;;;;3.83;3.53;;;;;;;13.55;100.00;96968.63;5093166;28;20196;-76
2021/09/26 04:22:34;;;;;;;4.47;3.77;;;;;;;13.33;100.00;96966.56;5093030;28;20786;-76
2021/09/26 04:25:01;;;;;;;5.60;4.30;;;;;;;13.51;100.00;96964.66;5093539;28;20220;-76
2021/09/26 04:27:29;;;;;;;4.17;3.77;;;;;;;13.76;100.00;96956.81;5092982;28;20699;-76
2021/09/26 04:29:56;;;;;;;4.30;4.00;;;;;;;13.85;100.00;96963.75;5091390;28;20631;-76
2021/09/26 04:32:23;;;;;;;5.37;4.10;;;;;;;13.87;100.00;96964.41;5081782;28;20311;-76
2021/09/26 04:34:52;;;;;;;4.40;4.00;;;;;;;13.96;100.00;96963.47;5072952;28;20205;-75
2021/09/26 04:37:19;;;;;;;4.60;4.20;;;;;;;13.93;100.00;96971.72;5072338;28;20200;-76
2021/09/26 04:39:47;;;;;;;4.93;4.13;;;;;;;13.95;100.00;96979.47;5072596;28;20197;-76
2021/09/26 04:42:14;;;;;;;7.43;4.90;;;;;;;13.90;100.00;96985.25;5072347;28;20669;-76
2021/09/26 04:44:41;;;;;;;6.90;5.53;;;;;;;13.78;100.00;96976.78;5072756;28;20231;-76
2021/09/26 04:47:08;;;;;;;23.17;8.87;;;;;;;13.64;100.00;96984.50;5072024;28;20189;-76
2021/09/26 04:49:36;;;;;;;15.40;6.57;;;;;;;13.71;100.00;96985.50;5072672;28;20201;-76
2021/09/26 04:52:05;;;;;;;5.33;4.83;;;;;;;13.95;100.00;96987.38;5078487;28;20207;-76
2021/09/26 04:54:32;;;;;;;8.70;7.90;;;;;;;13.97;100.00;96982.78;5076886;28;20197;-76
2021/09/26 04:57:00;;;;;;;8.63;7.87;;;;;;;13.86;100.00;96983.09;5072445;28;20241;-76
2021/09/26 04:59:28;;;;;;;5.77;5.17;;;;;;;13.86;100.00;96981.28;5072253;28;20189;-76
2021/09/26 05:01:55;;;;;;;6.50;5.30;;;;;;;13.76;100.00;96985.88;5072525;28;20193;-76
2021/09/26 05:04:22;;;;;;;8.53;7.77;;;;;;;13.91;100.00;96983.41;5075611;28;20217;-76
2021/09/26 05:06:49;;;;;;;4.90;4.50;;;;;;;14.02;100.00;96980.47;5079378;28;20209;-76
2021/09/26 05:09:21;;;;;;;5.57;4.90;;;;;;;14.11;100.00;96987.44;5072265;28;20201;-76
2021/09/26 05:11:48;;;;;;;5.43;4.97;;;;;;;14.19;100.00;96978.66;5071789;28;20193;-76
2021/09/26 05:14:15;;;;;;;6.07;5.23;;;;;;;14.08;100.00;96981.63;5071927;28;20193;-76
2021/09/26 05:16:43;;;;;;;4.23;3.90;;;;;;;14.13;100.00;96976.69;5072279;28;20197;-76
2021/09/26 05:19:10;;;;;;;16.37;12.67;;;;;;;14.20;100.00;96982.97;5071806;28;20202;-77
2021/09/26 05:21:37;;;;;;;10.20;9.13;;;;;;;14.26;100.00;96979.66;5072007;28;20193;-77
2021/09/26 05:24:05;;;;;;;8.97;7.77;;;;;;;14.17;100.00;96976.22;5071949;28;20243;-77
2021/09/26 05:26:34;;;;;;;10.73;7.30;;;;;;;14.25;100.00;96975.38;5074387;28;20200;-77
2021/09/26 05:29:03;;;;;;;7.10;6.40;;;;;;;14.34;100.00;96977.06;5080526;28;20236;-77
2021/09/26 05:31:31;;;;;;;7.07;6.37;;;;;;;14.33;100.00;96972.72;5071916;28;20205;-77
2021/09/26 05:33:58;;;;;;;6.10;5.60;;;;;;;14.42;100.00;96978.88;5071375;28;20189;-76
2021/09/26 05:36:25;;;;;;;6.70;4.83;;;;;;;14.36;100.00;96968.94;5071891;28;20288;-76
2021/09/26 05:38:53;;;;;;;5.23;4.73;;;;;;;14.61;100.00;96975.06;5071624;28;20204;-77
2021/09/26 05:41:20;;;;;;;9.07;5.03;;;;;;;14.62;100.00;96974.94;5071582;28;20282;-76
2021/09/26 05:43:49;;;;;;;6.33;5.23;;;;;;;14.77;100.00;96972.41;5071584;28;20203;-76
2021/09/26 05:46:16;;;;;;;6.60;5.17;;;;;;;14.79;100.00;96975.75;5072021;28;20208;-77
2021/09/26 05:48:44;;;;;;;5.90;5.47;;;;;;;14.89;100.00;96976.34;5077250;28;20232;-77
2021/09/26 05:51:12;;;;;;;6.83;5.57;;;;;;;14.95;100.00;96980.16;5076083;28;20584;-77
2021/09/26 05:53:39;;;;;;;6.33;5.77;;;;;;;15.06;100.00;96986.91;5080745;28;20204;-77
2021/09/26 05:56:06;;;;;;;5.67;5.17;;;;;;;15.32;100.00;96989.34;5083724;28;20227;-77
2021/09/26 05:58:33;;;;;;;6.67;4.80;;;;;;;15.38;100.00;96997.44;5079554;28;20220;-77
2021/09/26 06:01:02;;;;;;;5.33;4.27;;;;;;;15.46;100.00;97001.88;5071639;28;20213;-76
2021/09/26 06:03:29;;;;;;;7.60;4.50;;;;;;;15.72;100.00;97003.44;5071376;28;20687;-76
2021/09/26 06:05:57;;;;;;;6.30;4.87;;;;;;;15.68;100.00;97005.63;5071547;28;20221;-76
2021/09/26 06:08:26;;;;;;;7.63;5.13;;;;;;;15.75;100.00;96998.63;5071468;28;20198;-76
2021/09/26 06:10:54;;;;;;;5.57;4.60;;;;;;;15.77;100.00;97009.91;5077645;28;20218;-77
2021/09/26 06:13:21;;;;;;;4.73;4.23;;;;;;;15.88;100.00;97014.81;5090138;28;20247;-77
2021/09/26 06:15:49;;;;;;;5.87;4.67;;;;;;;15.99;100.00;97020.72;5090831;28;20203;-77
2021/09/26 06:18:18;;;;;;;6.27;4.53;;;;;;;16.27;100.00;97018.38;5090404;28;20582;-77
2021/09/26 06:20:45;;;;;;;5.67;5.17;;;;;;;16.39;100.00;97012.50;5090551;28;20363;-77
2021/09/26 06:23:13;;;;;;;5.97;5.40;;;;;;;16.59;100.00;97004.91;5090710;28;20578;-77
2021/09/26 06:25:40;;;;;;;5.20;4.70;;;;;;;16.66;100.00;97018.28;5089856;28;20321;-77
2021/09/26 06:28:07;;;;;;;4.37;4.07;;;;;;;16.82;100.00;97006.72;5090350;28;20203;-77
2021/09/26 06:30:36;;;;;;;6.30;4.23;;;;;;;16.94;100.00;97020.38;5090754;28;20199;-77
2021/09/26 06:33:04;;;;;;;4.73;4.27;;;;;;;17.16;100.00;97003.56;5090033;28;20667;-77
2021/09/26 06:35:33;;;;;;;4.63;4.23;;;;;;;17.27;100.00;97010.28;5090492;28;20202;-77
2021/09/26 06:38:02;;;;;;;4.30;3.90;;;;;;;17.27;100.00;97011.09;5090717;28;20680;-77
2021/09/26 06:40:30;;;;;;;5.07;3.80;;;;;;;17.44;100.00;97006.41;5091523;28;20195;-77
2021/09/26 06:42:57;;;;;;;4.57;4.17;;;;;;;17.61;100.00;97008.91;5091253;28;20253;-77
2021/09/26 06:45:25;;;;;;;6.67;4.53;;;;;;;17.78;100.00;97019.19;5091451;28;20314;-77
2021/09/26 06:47:52;;;;;;;5.17;4.40;;;;;;;17.98;100.00;97023.94;5091309;28;20198;-77
2021/09/26 06:50:19;;;;;;;4.57;4.10;;;;;;;18.22;100.00;97022.72;5091547;28;20207;-77
2021/09/26 06:52:48;;;;;;;5.23;4.83;;;;;;;18.34;100.00;97028.41;5091244;28;20208;-77
2021/09/26 06:55:15;;;;;;;5.40;3.57;;;;;;;18.61;100.00;97034.81;5091737;28;20192;-77
2021/09/26 06:57:42;;;;;;;4.10;3.27;;;;;;;18.87;100.00;97042.25;5050925;28;20216;-77
2021/09/26 07:00:11;;;;;;;4.50;4.10;;;;;;;19.01;100.00;97046.66;5051132;28;20197;-77
2021/09/26 07:02:38;;;;;;;4.67;4.17;;;;;;;19.37;100.00;97043.06;5050856;28;20205;-77
2021/09/26 07:05:06;;;;;;;4.63;4.07;;;;;;;19.16;100.00;97046.59;5051048;28;20718;-77
2021/09/26 07:07:33;;;;;;;4.70;4.20;;;;;;;19.32;100.00;97045.47;5051236;28;20591;-77
2021/09/26 07:10:02;;;;;;;4.70;4.30;;;;;;;19.59;100.00;97049.94;5051094;28;20208;-77
2021/09/26 07:12:30;;;;;;;4.10;3.53;;;;;;;19.81;100.00;97056.06;5053937;28;20197;-77
2021/09/26 07:15:01;;;;;;;4.63;4.10;;;;;;;20.04;100.00;97063.75;5054636;28;20197;-77
2021/09/26 07:17:29;;;;;;;4.73;3.50;;;;;;;20.40;100.00;97063.47;5054575;28;20635;-77
2021/09/26 07:19:56;;;;;;;4.63;4.23;;;;;;;20.49;100.00;97061.44;5054440;28;20297;-77
2021/09/26 07:22:24;;;;;;;4.87;4.47;;;;;;;20.61;100.00;97064.38;5053991;28;20198;-77
2021/09/26 07:24:53;;;;;;;6.33;4.10;;;;;;;20.84;100.00;97056.78;5054551;28;20275;-77
2021/09/26 07:27:22;;;;;;;6.17;3.60;;;;;;;21.23;100.00;97067.69;5054151;28;20271;-77
2021/09/26 07:29:49;;;;;;;5.83;3.70;;;;;;;21.44;100.00;97062.19;5054240;28;20190;-77
2021/09/26 07:32:17;;;;;;;4.17;3.77;;;;;;;21.67;100.00;97076.94;5054373;28;20201;-77
2021/09/26 07:34:45;;;;;;;4.30;3.70;;;;;;;21.77;100.00;97075.47;5054111;28;20220;-77
2021/09/26 07:37:12;;;;;;;3.73;3.30;;;;;;;22.08;100.00;97077.44;5054253;28;20565;-78
2021/09/26 07:39:40;;;;;;;3.80;3.50;;;;;;;22.13;100.00;97084.84;5054048;28;20204;-78
2021/09/26 07:42:08;;;;;;;4.07;3.73;;;;;;;22.38;100.00;97093.03;5053578;28;20194;-77
2021/09/26 07:44:37;;;;;;;3.70;3.40;;;;;;;22.54;100.00;97084.47;5054039;28;20229;-77
2021/09/26 07:47:04;;;;;;;4.53;4.13;;;;;;;22.35;100.00;97074.69;5054187;28;20296;-77
2021/09/26 07:49:32;;;;;;;4.10;3.70;;;;;;;22.32;100.00;97080.47;5054022;28;20202;-77
2021/09/26 07:51:59;;;;;;;5.17;4.03;;;;;;;22.41;100.00;97073.00;5053648;28;20208;-77
2021/09/26 07:54:27;;;;;;;6.73;6.13;;;;;;;22.63;100.00;97074.34;5053990;28;20226;-77
2021/09/26 07:56:54;;;;;;;6.83;5.60;;;;;;;23.16;100.00;97074.00;5080761;28;20232;-78
2021/09/26 07:59:21;;;;;;;5.70;4.43;;;;;;;23.22;100.00;97081.16;5094009;28;20680;-78
2021/09/26 08:01:50;;;;;;;6.80;3.83;;;;;;;23.57;100.00;97082.53;5094203;28;20207;-78
2021/09/26 08:04:17;;;;;;;3.93;3.63;;;;;;;23.45;100.00;97093.97;5093801;28;20197;-77
2021/09/26 08:06:45;;;;;;;4.80;4.20;;;;;;;23.68;100.00;97089.88;5094169;28;20551;-78
2021/09/26 08:09:12;;;;;;;6.10;4.00;;;;;;;24.12;100.00;97093.31;5090630;28;20204;-79
2021/09/26 08:11:39;;;;;;;4.50;4.10;;;;;;;24.36;100.00;97108.53;5093714;28;20208;-79
2021/09/26 08:14:06;;;;;;;6.73;4.10;;;;;;;24.13;100.00;97111.06;5093507;28;20272;-79
2021/09/26 08:16:33;;;;;;;6.10;4.23;;;;;;;24.66;100.00;97110.44;5093520;28;20207;-79
2021/09/26 08:19:02;;;;;;;5.00;4.23;;;;;;;24.63;100.00;97105.53;5093192;28;20204;-79
2021/09/26 08:21:30;;;;;;;5.30;4.77;;;;;;;24.46;100.00;97117.97;5092711;28;20197;-79
2021/09/26 08:23:57;;;;;;;4.30;4.00;;;;;;;24.65;100.00;97114.19;5092851;28;20684;-79
2021/09/26 08:26:24;;;;;;;6.97;5.10;;;;;;;24.73;100.00;97099.59;5093333;28;20224;-79
2021/09/26 08:28:52;;;;;;;6.40;4.30;;;;;;;24.23;100.00;97108.69;5092946;28;20203;-79
2021/09/26 08:31:19;;;;;;;4.73;4.43;;;;;;;24.81;100.00;97097.44;5093242;28;20196;-79
2021/09/26 08:33:46;;;;;;;5.47;4.27;;;;;;;25.00;100.00;97108.91;5092851;28;20196;-78
2021/09/26 08:36:15;;;;;;;4.03;3.73;;;;;;;25.24;100.00;97123.28;5093439;28;20204;-78
2021/09/26 08:38:42;;;;;;;6.23;5.37;;;;;;;25.29;100.00;97128.81;5090761;28;20192;-78
2021/09/26 08:41:10;;;;;;;5.70;5.20;;;;;;;25.10;100.00;97121.81;5092218;28;20197;-78
2021/09/26 08:43:37;;;;;;;11.03;9.37;;;;;;;25.22;100.00;97114.63;5093112;28;20200;-78
2021/09/26 08:46:05;;;;;;;4.80;4.33;;;;;;;25.46;100.00;97115.50;5092773;28;20332;-78
2021/09/26 08:48:33;;;;;;;5.80;3.87;;;;;;;25.68;100.00;97118.44;5092476;28;20197;-78
2021/09/26 08:51:00;;;;;;;7.23;4.33;;;;;;;25.74;100.00;97120.19;5093108;28;20275;-78
2021/09/26 08:53:29;;;;;;;5.17;4.23;;;;;;;26.12;100.00;97108.13;5092800;28;20275;-78
2021/09/26 08:55:57;;;;;;;6.00;4.83;;;;;;;26.16;100.00;97103.91;5092562;28;20231;-78
2021/09/26 08:58:25;;;;;;;5.80;4.23;;;;;;;26.63;100.00;97122.66;5092323;28;20668;-78
2021/09/26 09:00:54;;;;;;;4.93;4.53;;;;;;;26.48;100.00;97115.09;5092703;28;20301;-78
2021/09/26 09:03:21;;;;;;;5.33;4.77;;;;;;;26.35;100.00;97109.13;5092692;28;20218;-78
2021/09/26 09:05:52;;;;;;;4.70;4.18;;;;;;;26.57;100.00;97107.47;5092717;28;20715;-78
2021/09/26 09:08:21;;;;;;;7.50;5.20;;;;;;;27.02;100.00;97109.38;5092284;28;20185;-78
2021/09/26 09:10:51;;;;;;;6.28;5.22;;;;;;;26.86;100.00;97104.75;5092683;28;20197;-78
2021/09/26 09:13:20;;;;;;;7.57;4.93;;;;;;;26.66;100.00;97111.38;5092463;28;20215;-78
2021/09/26 09:15:55;;;;;;;5.05;4.65;;;;;;;26.77;100.00;97105.13;5092573;28;20194;-78
2021/09/26 09:18:23;;;;;;;7.22;4.60;;;;;;;27.40;100.00;97105.16;5092290;28;20694;-78
2021/09/26 09:20:51;;;;;;;5.97;5.20;;;;;;;27.31;100.00;97106.63;5092315;28;20200;-78
2021/09/26 09:23:20;;;;;;;4.95;4.20;;;;;;;27.68;100.00;97112.38;5092367;28;20631;-79
2021/09/26 09:25:52;;;;;;;4.88;4.47;;;;;;;28.04;100.00;97113.72;5092271;28;20224;-78
2021/09/26 09:28:21;;;;;;;6.75;4.50;;;;;;;27.86;100.00;97122.91;5091972;28;20592;-78
2021/09/26 09:30:49;;;;;;;5.30;4.90;;;;;;;27.46;100.00;97123.06;5092311;28;20204;-78
2021/09/26 09:33:18;;;;;;;5.10;3.90;;;;;;;27.01;100.00;97116.63;5091822;28;20337;-78
2021/09/26 09:35:48;;;;;;;8.40;5.00;;;;;;;27.38;100.00;97123.50;5092114;28;20193;-78
2021/09/26 09:38:19;;;;;;;8.27;4.25;;;;;;;28.01;100.00;97118.78;5092019;28;20181;-78
2021/09/26 09:40:51;;;;;;;6.10;3.63;;;;;;;27.60;100.00;97120.84;5091946;28;20199;-78
2021/09/26 09:43:19;;;;;;;5.57;4.38;;;;;;;28.03;100.00;97119.38;5092101;28;20218;-78
2021/09/26 09:45:52;;;;;;;4.72;4.32;;;;;;;27.82;100.00;97126.38;5092146;28;20224;-78
2021/09/26 09:48:20;;;;;;;5.00;3.67;;;;;;;27.92;100.00;97132.75;5088870;28;20193;-78
2021/09/26 09:50:56;;;;;;;4.30;3.97;;;;;;;27.89;100.00;97124.31;5091714;28;20200;-78
2021/09/26 09:53:30;;;;;;;4.15;3.85;;;;;;;27.71;100.00;97126.19;5091905;28;20190;-78
2021/09/26 09:56:09;;;;;;;5.35;4.50;;;;;;;27.54;100.00;97130.78;5091673;28;20230;-79
2021/09/26 09:58:39;;;;;;;4.57;4.28;;;;;;;28.00;100.00;97123.38;5091708;28;20176;-78
2021/09/26 10:01:10;;;;;;;5.18;4.68;;;;;;;27.89;100.00;97122.44;5092189;28;20197;-78
2021/09/26 10:03:43;;;;;;;5.28;4.47;;;;;;;27.99;100.00;97127.16;5091429;28;20180;-78
2021/09/26 10:06:40;;;;;;;4.65;4.18;;;;;;;27.61;100.00;97122.50;5091636;28;20706;-79
2021/09/26 10:09:25;;;;;;;4.97;4.68;;;;;;;27.71;100.00;97115.38;5091633;28;20206;-78
2021/09/26 10:11:56;;;;;;;5.35;4.47;;;;;;;27.90;100.00;97115.94;5089247;28;20204;-78
2021/09/26 10:14:26;;;;;;;4.95;4.55;;;;;;;27.72;100.00;97114.31;5089619;28;20279;-78
2021/09/26 10:16:54;;;;;;;8.15;4.10;;;;;;;28.01;100.00;97113.38;5090986;28;20576;-78
2021/09/26 10:19:34;;;;;;;4.90;4.47;;;;;;;28.02;100.00;97115.00;5091260;28;20223;-79
2021/09/26 10:22:03;;;;;;;6.18;4.35;;;;;;;28.53;100.00;97108.41;5091124;28;20193;-78
2021/09/26 10:24:34;;;;;;;4.75;3.97;;;;;;;28.39;100.00;97112.56;5091204;28;20200;-78
2021/09/26 10:27:07;;;;;;;4.00;3.63;;;;;;;28.15;100.00;97111.97;5091448;28;20681;-79
2021/09/26 10:29:35;;;;;;;4.38;4.07;;;;;;;27.95;100.00;97113.34;5091819;28;20188;-79
2021/09/26 10:32:05;;;;;;;4.75;4.35;;;;;;;27.89;100.00;97105.41;5091592;28;20223;-79
2021/09/26 10:34:33;;;;;;;5.25;4.15;;;;;;;27.91;100.00;97101.38;5091491;28;20203;-79
2021/09/26 10:37:03;;;;;;;4.40;4.00;;;;;;;28.16;100.00;97100.06;5091381;28;20196;-78
2021/09/26 10:39:31;;;;;;;5.78;4.40;;;;;;;27.54;100.00;97101.06;5091774;28;20621;-79
2021/09/26 10:42:11;;;;;;;5.15;4.07;;;;;;;28.59;100.00;97096.56;5091866;28;20279;-79
2021/09/26 10:44:41;;;;;;;4.47;4.07;;;;;;;29.09;100.00;97094.66;5091474;28;20185;-78
2021/09/26 10:47:15;;;;;;;5.22;4.65;;;;;;;29.39;100.00;97092.22;5095606;28;20220;-79
2021/09/26 10:49:45;;;;;;;4.30;3.90;;;;;;;29.05;100.00;97093.56;5095377;28;20241;-79
2021/09/26 10:52:27;;;;;;;4.75;4.35;;;;;;;28.75;100.00;97092.16;5095622;28;20252;-79
2021/09/26 10:54:57;;;;;;;4.93;4.53;;;;;;;28.71;100.00;97087.50;5095345;28;20225;-78
2021/09/26 10:57:30;;;;;;;5.10;4.30;;;;;;;28.34;100.00;97085.44;5094898;28;20613;-78
2021/09/26 11:00:02;;;;;;;6.03;3.90;;;;;;;28.49;100.00;97077.53;5095477;28;20203;-79
2021/09/26 11:02:48;;;;;;;4.38;3.97;;;;;;;28.58;100.00;97078.72;5095211;28;20198;-79
2021/09/26 11:05:40;;;;;;;7.68;4.15;;;;;;;28.11;100.00;97078.41;5095015;28;20279;-80
2021/09/26 11:08:11;;;;;;;4.13;3.83;;;;;;;28.36;100.00;97065.19;5094823;28;20184;-78
2021/09/26 11:10:50;;;;;;;5.85;4.65;;;;;;;28.40;100.00;97058.25;5095359;28;20218;-78
2021/09/26 11:13:26;;;;;;;4.68;4.20;;;;;;;28.93;100.00;97061.22;5094726;28;20541;-77
2021/09/26 11:16:15;;;;;;;7.32;3.47;;;;;;;28.51;100.00;97063.75;5094962;28;20623;-78
2021/09/26 11:18:54;;;;;;;5.07;4.28;;;;;;;28.56;100.00;97056.53;5094675;28;20180;-79
2021/09/26 11:22:07;;;;;;;4.30;3.90;;;;;;;28.62;100.00;97055.50;5095188;28;20180;-79
2021/09/26 11:24:58;;;;;;;3.47;2.90;;;;;;;28.37;100.00;97050.63;5094623;28;20716;-78
2021/09/26 11:27:38;;;;;;;4.35;3.90;;;;;;;28.44;100.00;97042.34;5094767;28;20291;-78
2021/09/26 11:30:26;;;;;;;5.10;3.97;;;;;;;28.64;100.00;97047.13;5094694;28;20199;-78
2021/09/26 11:33:11;;;;;;;4.47;3.80;;;;;;;28.79;100.00;97050.00;5094419;28;20693;-78
2021/09/26 11:35:40;;;;;;;8.50;4.43;;;;;;;28.73;100.00;97037.50;5094829;28;20211;-78